TAF Text Data
IDs:
Format:
Raw Decoded Include METAR

Data at: 1015 UTC 07 Dec 2022

EHGG 070955Z AUTO 27008KT 230V300 9999 FEW019 BKN030 OVC036 04/02 Q1014 TEMPO 7000 -SHRA FEW020CB

TAF EHGG 070454Z 0706/0812 27005KT 9999 BKN025
  TEMPO 0706/0715 30010KT 6000 -SHRA FEW020CB
  TEMPO 0715/0809 24010KT 4000 SHRAGS BKN012 SCT015CB
  PROB40
  TEMPO 0800/0809 2500 SHRASN BR BKN006 SCT012CB


EHLE 070955Z AUTO 28007KT 250V320 9999 SCT021 BKN024 BKN030 05/04 Q1017 TEMPO 7000 -SHRA FEW020CB

TAF EHLE 070458Z 0706/0812 30007KT 9999 SCT040
  TEMPO 0706/0802 6000 -SHRA FEW020CB BKN025
  TEMPO 0802/0809 4000 SHRA SHRAGS SCT015CB BKN020
  PROB30 0804/0812 BKN005


EDDG 070950Z AUTO 27009KT 9999 SCT040 04/02 Q1015 NOSIG

TAF EDDG 070500Z 0706/0806 25008KT 9000 SCT020
  PROB30
  TEMPO 0706/0708 4000 BR BKN010
  PROB30
  TEMPO 0800/0804 BKN014
  TEMPO 0804/0806 4000 RA BKN010